Grand Strand Airport
KCRE : rendu visible

Aérodrome :











RETROUVEZ-NOUS SUR...

 
LOGIN :

S'inscrire | Disclaimer

   EN    FR    IT 

 









Légende :    VFR   VFR Marginal   IFR   IFR Intensif   IFR Très Intensif
Visi : 
Plafond : 
>= 8 km
>= 3000ft
5 à 8 km
1000 à 3000 ft
1500m à 5 km
500 à 1000 ft
800 à 1500m
200 à 500 ft
< 800m
< 200 ft
Symboles :   Orages  Brouillard  Fortes neiges  Fortes précipitations  Vent > 20 kt






- Altitude de l'aérodrome : 32 ft


KCRE - Grand Strand

DERNIER METAR :
  • 300313Z AUTO 28003KT 10SM VCTS BKN044 OVC060 23/22 A3007 RMK AO1 LTG DSNT NW T02280217

METARs EXPIRÉS :
  • 300253Z AUTO 20003KT 10SM FEW045 BKN055 OVC100 23/22 A3006 RMK AO1 LTG DSNT NW RAE39 SLP181 P0007 60008 T02280217 55001
  • 300153Z AUTO 00000KT 10SM -RA FEW047 SCT060 BKN080 23/22 A3006 RMK AO1 RAB16 SLP180 P0001 T02280217
  • 300137Z AUTO 00000KT 10SM -RA FEW019 SCT055 OVC080 23/21 A3007 RMK AO1 RAB16 P0001 T02280211
  • 300125Z AUTO 00000KT 7SM VCTS -RA FEW013 BKN055 OVC080 23/22 A3007 RMK AO1 RAB16 P0001 T02280217
  • 300116Z AUTO 30006KT 8SM VCTS -RA SCT013 BKN020 OVC050 23/22 A3007 RMK AO1 RAB16 P0000 T02330217
  • 300053Z AUTO 31004KT 10SM FEW011 BKN020 OVC075 23/22 A3007 RMK AO1 SLP182 T02330222

TAF KCRE
Valide du 30 à 00h jusqu'au 31 à 00h UTC


292320Z 3000/3024 20007KT P6SM VCSH SCT020 BKN060
FM300600 21007KT P6SM VCSH BKN020
FM301100 22006KT 5SM SHRA BR BKN025
FM301800 19009KT P6SM SCT050
PROB30 3018/3022 2SM TS BKN050CB
FIR KZJX / Amérique du Nord



MET'MAP, la Météo Aéronautique d'un coup d'oeil ! - Copyright ORBIFLY Décembre 2007 - Disclaimer

ORBIFLY MET'MAP TEAM :

Programmation & Développement : Alexandra Zaïnal
Sur une idée originale de : Baudouin d'Aumeries
Assistance à la programmation : Marc-Olivier Méhu
Soutien technique & logistique : Manuel Goepfert

Contact : metmap@orbifly.com




SOURCES & CREDITS :

   NOAA       Earth
Advisory